createdAt,value
2023-05-07T00:00:12.366Z,6.90
2023-05-07T00:02:40.022Z,5.50
2023-05-07T00:05:08.544Z,5.15
2023-05-07T00:07:36.275Z,5.45
2023-05-07T00:10:04.940Z,5.30
2023-05-07T00:12:34.631Z,5.35
2023-05-07T00:15:04.327Z,5.50
2023-05-07T00:17:32.397Z,5.15
2023-05-07T00:19:59.688Z,5.85
2023-05-07T00:22:27.208Z,5.47
2023-05-07T00:24:54.654Z,5.05
2023-05-07T00:27:21.942Z,5.20
2023-05-07T00:29:49.430Z,5.35
2023-05-07T00:32:16.700Z,5.15
2023-05-07T00:34:44.867Z,5.65
2023-05-07T00:37:12.998Z,4.90
2023-05-07T00:39:40.409Z,5.38
2023-05-07T00:42:07.747Z,5.82
2023-05-07T00:44:35.005Z,5.07
2023-05-07T00:47:04.417Z,5.30
2023-05-07T00:49:43.622Z,5.50
2023-05-07T00:52:17.466Z,6.47
2023-05-07T00:54:45.660Z,5.30
2023-05-07T00:57:13.071Z,5.60
2023-05-07T00:59:42.621Z,5.68
2023-05-07T01:02:10.050Z,5.40
2023-05-07T01:04:37.781Z,5.35
2023-05-07T01:07:06.154Z,5.47
2023-05-07T01:09:33.826Z,5.78
2023-05-07T01:12:01.695Z,5.90
2023-05-07T01:14:29.145Z,5.65
2023-05-07T01:16:56.566Z,5.80
2023-05-07T01:19:24.136Z,5.47
2023-05-07T01:21:58.127Z,4.88
2023-05-07T01:24:25.497Z,5.50
2023-05-07T01:26:52.786Z,5.13
2023-05-07T01:29:20.039Z,5.18
2023-05-07T01:31:48.719Z,5.38
2023-05-07T01:34:18.353Z,5.20
2023-05-07T01:36:47.445Z,5.38
2023-05-07T01:39:15.618Z,5.40
2023-05-07T01:41:44.123Z,5.07
2023-05-07T01:44:13.650Z,5.20
2023-05-07T01:46:41.312Z,5.50
2023-05-07T01:49:09.018Z,5.50
2023-05-07T01:51:36.410Z,5.53
2023-05-07T01:54:03.684Z,5.13
2023-05-07T01:56:31.069Z,5.90
2023-05-07T01:58:58.424Z,5.70
2023-05-07T02:01:25.894Z,5.05
2023-05-07T02:03:54.805Z,5.72
2023-05-07T02:06:22.422Z,5.50
2023-05-07T02:08:49.667Z,6.47
2023-05-07T02:11:16.964Z,5.78
2023-05-07T02:13:44.232Z,5.22
2023-05-07T02:16:11.955Z,5.80
2023-05-07T02:18:39.393Z,5.30
2023-05-07T02:21:06.745Z,5.10
2023-05-07T02:23:34.018Z,5.43
2023-05-07T02:26:01.269Z,5.80
2023-05-07T02:28:28.665Z,5.75
2023-05-07T02:30:56.060Z,5.35
2023-05-07T02:33:23.311Z,5.30
2023-05-07T02:35:50.669Z,5.70
2023-05-07T02:38:18.001Z,5.80
2023-05-07T02:40:45.401Z,5.78
2023-05-07T02:43:12.637Z,5.65
2023-05-07T02:45:39.987Z,5.13
2023-05-07T02:48:07.491Z,5.13
2023-05-07T02:50:34.937Z,5.32
2023-05-07T02:53:02.359Z,5.10
2023-05-07T02:55:29.595Z,5.10
2023-05-07T02:57:56.952Z,5.45
2023-05-07T03:00:24.649Z,4.80
2023-05-07T03:02:51.900Z,5.20
2023-05-07T03:05:19.196Z,4.85
2023-05-07T03:07:47.157Z,5.10
2023-05-07T03:10:14.515Z,5.60
2023-05-07T03:12:41.823Z,4.93
2023-05-07T03:15:09.885Z,5.03
2023-05-07T03:17:37.205Z,5.07
2023-05-07T03:20:05.059Z,5.40
2023-05-07T03:22:32.357Z,5.30
2023-05-07T03:24:59.610Z,4.88
2023-05-07T03:27:26.891Z,5.18
2023-05-07T03:29:54.121Z,4.97
2023-05-07T03:32:21.502Z,4.90
2023-05-07T03:34:48.824Z,4.72
2023-05-07T03:37:16.281Z,4.88
2023-05-07T03:39:43.611Z,4.50
2023-05-07T03:42:10.973Z,4.53
2023-05-07T03:44:38.315Z,4.85
2023-05-07T03:47:05.921Z,4.57
2023-05-07T03:49:33.183Z,4.90
2023-05-07T03:52:00.470Z,4.10
2023-05-07T03:54:27.762Z,4.53
2023-05-07T03:56:55.064Z,4.60
2023-05-07T03:59:22.912Z,4.45
2023-05-07T04:01:50.326Z,4.78
2023-05-07T04:04:17.951Z,4.53
2023-05-07T04:06:45.417Z,4.75
2023-05-07T04:09:12.717Z,4.60
2023-05-07T04:11:41.327Z,4.18
2023-05-07T04:14:08.706Z,4.60
2023-05-07T04:16:36.766Z,4.40
2023-05-07T04:19:04.131Z,4.25
2023-05-07T04:21:31.831Z,4.18
2023-05-07T04:23:59.276Z,4.55
2023-05-07T04:26:26.644Z,4.30
2023-05-07T04:28:54.189Z,4.13
2023-05-07T04:33:49.935Z,3.97
2023-05-07T04:36:17.224Z,4.03
2023-05-07T04:38:44.572Z,4.03
2023-05-07T04:41:13.651Z,4.57
2023-05-07T04:43:41.168Z,3.92
2023-05-07T04:46:08.483Z,4.00
2023-05-07T04:48:35.840Z,4.05
2023-05-07T04:51:03.183Z,4.15
2023-05-07T04:53:30.574Z,4.18
2023-05-07T04:55:58.379Z,4.78
2023-05-07T04:58:25.989Z,4.55
2023-05-07T05:00:53.248Z,4.15
2023-05-07T05:03:20.600Z,4.13
2023-05-07T05:05:49.826Z,4.57
2023-05-07T05:08:18.110Z,4.00
2023-05-07T05:10:45.455Z,4.50
2023-05-07T05:13:13.872Z,4.07
2023-05-07T05:15:41.438Z,4.20
2023-05-07T05:18:08.752Z,4.03
2023-05-07T05:20:36.090Z,4.18
2023-05-07T05:23:03.687Z,4.35
2023-05-07T05:25:31.054Z,4.00
2023-05-07T05:27:58.346Z,3.85
2023-05-07T05:30:25.651Z,3.67
2023-05-07T05:32:53.038Z,4.35
2023-05-07T05:35:20.373Z,3.75
2023-05-07T05:37:47.728Z,3.67
2023-05-07T05:40:14.991Z,3.80
2023-05-07T05:42:42.277Z,3.47
2023-05-07T05:45:10.217Z,4.25
2023-05-07T05:47:38.335Z,3.90
2023-05-07T05:50:07.345Z,3.72
2023-05-07T05:52:34.708Z,3.42
2023-05-07T05:55:01.926Z,4.10
2023-05-07T05:57:29.290Z,3.80
2023-05-07T05:59:56.671Z,3.80
2023-05-07T06:02:24.205Z,3.83
2023-05-07T06:04:51.537Z,3.92
2023-05-07T06:07:18.815Z,4.28
2023-05-07T06:09:46.128Z,3.72
2023-05-07T06:12:13.758Z,3.55
2023-05-07T06:14:41.890Z,3.72
2023-05-07T06:17:09.158Z,4.20
2023-05-07T06:19:36.780Z,4.35
2023-05-07T06:22:04.147Z,3.80
2023-05-07T06:24:31.507Z,4.65
2023-05-07T06:26:59.476Z,4.63
2023-05-07T06:29:27.113Z,4.40
2023-05-07T06:31:57.381Z,3.90
2023-05-07T06:34:24.759Z,4.13
2023-05-07T06:36:52.046Z,4.07
2023-05-07T06:39:19.330Z,4.45
2023-05-07T06:41:46.664Z,4.20
2023-05-07T06:44:13.951Z,4.75
2023-05-07T06:46:41.370Z,4.35
2023-05-07T06:49:08.733Z,4.40
2023-05-07T06:51:36.118Z,4.55
2023-05-07T06:54:05.391Z,4.40
2023-05-07T06:56:33.318Z,4.70
2023-05-07T06:59:02.549Z,4.60
2023-05-07T07:01:30.183Z,5.07
2023-05-07T07:03:57.462Z,5.05
2023-05-07T07:06:24.952Z,5.00
2023-05-07T07:08:52.262Z,4.65
2023-05-07T07:11:19.540Z,3.50
2023-05-07T07:13:46.831Z,4.10
2023-05-07T07:16:14.258Z,4.05
2023-05-07T07:18:41.700Z,4.03
2023-05-07T07:21:09.127Z,3.33
2023-05-07T07:23:36.364Z,4.07
2023-05-07T07:26:03.714Z,4.03
2023-05-07T07:28:31.001Z,3.80
2023-05-07T07:30:58.313Z,4.07
2023-05-07T07:33:25.914Z,4.13
2023-05-07T07:35:53.252Z,4.00
2023-05-07T07:38:21.062Z,3.90
2023-05-07T07:40:49.459Z,3.78
2023-05-07T07:43:16.895Z,3.72
2023-05-07T07:45:44.578Z,3.33
2023-05-07T07:48:11.986Z,3.42
2023-05-07T07:50:45.231Z,3.40
2023-05-07T07:53:13.512Z,3.53
2023-05-07T07:55:41.783Z,3.55
2023-05-07T07:58:09.142Z,3.75
2023-05-07T08:00:36.628Z,3.60
2023-05-07T08:03:04.459Z,3.72
2023-05-07T08:05:31.895Z,5.25
2023-05-07T08:07:59.532Z,4.93
2023-05-07T08:10:27.034Z,5.07
2023-05-07T08:12:54.496Z,5.43
2023-05-07T08:15:21.920Z,10.95
2023-05-07T08:17:49.315Z,4.88
2023-05-07T08:20:16.620Z,5.25
2023-05-07T08:22:44.000Z,4.68
2023-05-07T08:25:11.394Z,3.63
2023-05-07T08:27:38.670Z,4.03
2023-05-07T08:30:06.665Z,4.05
2023-05-07T08:32:33.975Z,3.70
2023-05-07T08:35:01.718Z,3.80
2023-05-07T08:37:29.018Z,3.55
2023-05-07T08:39:56.281Z,3.33
2023-05-07T08:42:26.111Z,4.72
2023-05-07T08:44:55.683Z,3.42
2023-05-07T08:47:29.944Z,3.70
2023-05-07T08:49:57.308Z,3.72
2023-05-07T08:52:24.682Z,3.28
2023-05-07T08:54:51.936Z,3.50
2023-05-07T08:57:20.964Z,3.55
2023-05-07T08:59:48.290Z,3.50
2023-05-07T09:02:16.631Z,4.13
2023-05-07T09:04:44.250Z,3.45
2023-05-07T09:07:11.948Z,3.53
2023-05-07T09:09:39.384Z,3.58
2023-05-07T09:12:07.039Z,3.50
2023-05-07T09:14:34.523Z,4.90
2023-05-07T09:17:01.860Z,4.28
2023-05-07T09:19:29.394Z,3.20
2023-05-07T09:22:04.437Z,3.33
2023-05-07T09:24:35.940Z,4.63
2023-05-07T09:27:04.321Z,2.95
2023-05-07T09:29:36.159Z,2.75
2023-05-07T09:32:06.084Z,4.03
2023-05-07T09:34:33.977Z,3.72
2023-05-07T09:37:03.807Z,6.43
2023-05-07T09:39:44.697Z,4.10
2023-05-07T09:42:12.847Z,6.10
2023-05-07T09:44:41.073Z,4.35
2023-05-07T09:47:09.209Z,5.07
2023-05-07T09:49:38.647Z,4.75
2023-05-07T09:52:09.598Z,6.70
2023-05-07T09:54:41.416Z,4.60
2023-05-07T09:57:10.597Z,4.90
2023-05-07T09:59:39.623Z,5.25
2023-05-07T10:02:07.299Z,5.47
2023-05-07T10:04:36.257Z,4.45
2023-05-07T10:07:05.964Z,3.72
2023-05-07T10:09:34.600Z,6.03
2023-05-07T10:12:02.230Z,6.22
2023-05-07T10:14:30.524Z,5.53
2023-05-07T10:16:58.318Z,5.22
2023-05-07T10:19:26.569Z,5.88
2023-05-07T10:21:59.951Z,5.40
2023-05-07T10:24:37.886Z,4.32
2023-05-07T10:27:15.512Z,5.07
2023-05-07T10:30:01.492Z,6.22
2023-05-07T10:32:53.994Z,5.60
2023-05-07T10:35:30.323Z,5.35
2023-05-07T10:37:57.823Z,7.15
2023-05-07T10:40:25.445Z,6.80
2023-05-07T10:43:01.255Z,8.35
2023-05-07T10:45:29.680Z,6.63
2023-05-07T10:48:25.084Z,7.90
2023-05-07T10:51:21.549Z,7.53
2023-05-07T10:53:48.891Z,7.63
2023-05-07T10:56:19.691Z,8.63
2023-05-07T10:58:47.109Z,10.05
2023-05-07T11:01:15.844Z,11.55
2023-05-07T11:04:16.286Z,9.80
2023-05-07T11:07:03.560Z,10.50
2023-05-07T11:09:52.838Z,9.35
2023-05-07T11:12:39.040Z,10.73
2023-05-07T11:15:16.591Z,10.30
2023-05-07T11:18:00.956Z,10.88
2023-05-07T11:20:51.536Z,9.45
2023-05-07T11:23:33.841Z,8.98
2023-05-07T11:26:01.815Z,10.68
2023-05-07T11:28:37.359Z,10.15
2023-05-07T11:31:05.749Z,10.38
2023-05-07T11:33:33.518Z,10.43
2023-05-07T11:36:02.899Z,8.38
2023-05-07T11:38:31.427Z,9.32
2023-05-07T11:41:05.707Z,10.50
2023-05-07T11:43:33.892Z,9.25
2023-05-07T11:46:15.408Z,9.30
2023-05-07T11:48:44.270Z,10.30
2023-05-07T11:51:13.569Z,8.60
2023-05-07T11:53:42.578Z,9.38
2023-05-07T11:56:12.130Z,10.48
2023-05-07T11:58:40.679Z,10.50
2023-05-07T12:01:10.360Z,10.40
2023-05-07T12:03:45.886Z,13.43
2023-05-07T12:06:14.442Z,11.55
2023-05-07T12:08:44.369Z,16.42
2023-05-07T12:11:25.072Z,16.98
2023-05-07T12:13:52.899Z,17.15
2023-05-07T12:16:21.528Z,18.52
2023-05-07T12:18:49.722Z,17.33
2023-05-07T12:21:18.329Z,18.00
2023-05-07T12:23:46.217Z,23.77
2023-05-07T12:26:13.500Z,20.25
2023-05-07T12:28:41.050Z,17.15
2023-05-07T12:31:08.998Z,24.35
2023-05-07T12:33:37.377Z,22.88
2023-05-07T12:36:08.449Z,21.55
2023-05-07T12:38:41.796Z,23.52
2023-05-07T12:43:57.156Z,33.33
2023-05-07T12:46:24.692Z,22.98
2023-05-07T12:48:53.336Z,22.38
2023-05-07T12:51:20.982Z,20.90
2023-05-07T12:53:48.313Z,24.42
2023-05-07T12:56:17.789Z,26.55
2023-05-07T12:58:45.185Z,20.80
2023-05-07T13:01:16.449Z,21.90
2023-05-07T13:03:50.586Z,21.98
2023-05-07T13:06:17.883Z,24.65
2023-05-07T13:08:45.146Z,26.08
2023-05-07T13:11:13.713Z,22.48
2023-05-07T13:13:42.638Z,22.58
2023-05-07T13:16:11.982Z,24.17
2023-05-07T13:18:41.327Z,22.98
2023-05-07T13:21:08.999Z,21.13
2023-05-07T13:23:36.458Z,23.10
2023-05-07T13:26:08.412Z,22.73
2023-05-07T13:28:38.915Z,24.15
2023-05-07T13:31:06.207Z,21.63
2023-05-07T13:33:33.490Z,22.83
2023-05-07T13:36:01.711Z,20.02
2023-05-07T13:38:28.997Z,24.23
2023-05-07T13:40:56.282Z,24.05
2023-05-07T13:43:23.709Z,20.90
2023-05-07T13:45:51.092Z,23.15
2023-05-07T13:48:18.443Z,20.25
2023-05-07T13:50:45.819Z,21.58
2023-05-07T13:53:13.181Z,21.73
2023-05-07T13:55:40.542Z,22.48
2023-05-07T13:58:07.868Z,19.35
2023-05-07T14:00:35.516Z,21.27
2023-05-07T14:03:03.192Z,20.98
2023-05-07T14:05:30.641Z,19.55
2023-05-07T14:07:59.021Z,20.50
2023-05-07T14:10:26.923Z,20.95
2023-05-07T14:12:54.433Z,20.35
2023-05-07T14:15:21.924Z,20.60
2023-05-07T14:17:49.285Z,19.55
2023-05-07T14:20:16.719Z,20.58
2023-05-07T14:22:44.108Z,18.80
2023-05-07T14:25:11.486Z,18.52
2023-05-07T14:27:38.885Z,20.45
2023-05-07T14:30:07.063Z,20.77
2023-05-07T14:32:34.910Z,24.42
2023-05-07T14:35:02.337Z,19.27
2023-05-07T14:37:29.768Z,19.73
2023-05-07T14:39:57.062Z,24.77
2023-05-07T14:42:24.381Z,20.55
2023-05-07T14:44:51.809Z,20.10
2023-05-07T14:47:20.057Z,23.58
2023-05-07T14:49:47.572Z,22.38
2023-05-07T14:52:14.864Z,19.75
2023-05-07T14:54:42.638Z,20.80
2023-05-07T14:57:14.223Z,19.00
2023-05-07T14:59:42.457Z,19.70
2023-05-07T15:02:13.676Z,20.63
2023-05-07T15:04:46.594Z,20.08
2023-05-07T15:07:17.527Z,18.52
2023-05-07T15:09:45.566Z,18.70
2023-05-07T15:12:13.113Z,19.48
2023-05-07T15:14:40.773Z,17.98
2023-05-07T15:17:08.596Z,18.48
2023-05-07T15:19:36.140Z,17.98
2023-05-07T15:22:03.653Z,19.63
2023-05-07T15:24:31.887Z,16.95
2023-05-07T15:26:59.434Z,17.60
2023-05-07T15:29:26.785Z,29.10
2023-05-07T15:31:54.206Z,18.40
2023-05-07T15:34:22.636Z,17.95
2023-05-07T15:36:49.973Z,18.83
2023-05-07T15:39:17.317Z,18.50
2023-05-07T15:41:44.589Z,18.15
2023-05-07T15:44:11.994Z,18.92
2023-05-07T15:46:39.277Z,18.45
2023-05-07T15:49:06.664Z,18.15
2023-05-07T15:51:36.626Z,16.85
2023-05-07T15:54:04.231Z,17.33
2023-05-07T15:56:33.905Z,16.58
2023-05-07T15:59:02.221Z,19.40
2023-05-07T16:01:29.723Z,18.52
2023-05-07T16:03:57.029Z,16.08
2023-05-07T16:06:24.358Z,16.35
2023-05-07T16:08:52.164Z,16.50
2023-05-07T16:11:19.494Z,15.85
2023-05-07T16:13:46.808Z,16.08
2023-05-07T16:16:14.082Z,15.20
2023-05-07T16:18:41.489Z,15.45
2023-05-07T16:21:08.771Z,16.20
2023-05-07T16:23:37.356Z,16.27
2023-05-07T16:26:05.227Z,15.85
2023-05-07T16:28:32.582Z,17.60
2023-05-07T16:30:59.904Z,17.08
2023-05-07T16:33:27.210Z,15.60
2023-05-07T16:35:54.509Z,17.45
2023-05-07T16:38:21.828Z,16.75
2023-05-07T16:40:49.132Z,17.38
2023-05-07T16:43:16.473Z,15.18
2023-05-07T16:45:44.505Z,14.85
2023-05-07T16:48:12.363Z,15.65
2023-05-07T16:50:39.683Z,16.77
2023-05-07T16:53:07.474Z,18.10
2023-05-07T16:55:39.009Z,15.25
2023-05-07T16:58:07.508Z,15.32
2023-05-07T17:00:49.167Z,16.13
2023-05-07T17:03:18.370Z,15.18
2023-05-07T17:05:46.055Z,16.67
2023-05-07T17:08:13.904Z,15.40
2023-05-07T17:10:42.306Z,16.05
2023-05-07T17:13:09.710Z,17.42
2023-05-07T17:15:37.117Z,16.58
2023-05-07T17:18:04.628Z,16.70
2023-05-07T17:20:32.022Z,14.75
2023-05-07T17:22:59.298Z,14.18
2023-05-07T17:25:26.631Z,13.90
2023-05-07T17:27:54.031Z,18.30
2023-05-07T17:30:21.464Z,14.82
2023-05-07T17:32:48.860Z,15.05
2023-05-07T17:35:16.290Z,14.23
2023-05-07T17:37:47.267Z,15.30
2023-05-07T17:40:15.226Z,13.00
2023-05-07T17:42:42.541Z,13.07
2023-05-07T17:45:10.531Z,14.02
2023-05-07T17:47:37.851Z,13.02
2023-05-07T17:50:10.628Z,13.45
2023-05-07T17:52:39.295Z,13.25
2023-05-07T17:55:07.194Z,15.82
2023-05-07T17:57:37.745Z,15.32
2023-05-07T18:00:07.767Z,15.77
2023-05-07T18:02:35.363Z,17.58
2023-05-07T18:05:03.544Z,22.58
2023-05-07T18:07:31.028Z,18.13
2023-05-07T18:09:58.297Z,21.17
2023-05-07T18:12:27.455Z,19.00
2023-05-07T18:14:55.194Z,24.13
2023-05-07T18:17:24.337Z,19.60
2023-05-07T18:19:54.753Z,21.40
2023-05-07T18:22:22.633Z,21.27
2023-05-07T18:24:51.031Z,21.30
2023-05-07T18:27:18.767Z,22.08
2023-05-07T18:29:46.311Z,17.70
2023-05-07T18:32:14.045Z,22.92
2023-05-07T18:34:41.594Z,21.58
2023-05-07T18:37:08.943Z,20.50
2023-05-07T18:39:36.924Z,22.05
2023-05-07T18:42:08.324Z,25.83
2023-05-07T18:44:38.637Z,20.48
2023-05-07T18:47:06.699Z,22.02
2023-05-07T18:49:35.129Z,23.85
2023-05-07T18:52:02.667Z,22.55
2023-05-07T18:54:30.047Z,24.35
2023-05-07T18:56:57.421Z,27.25
2023-05-07T18:59:24.826Z,32.53
2023-05-07T19:01:52.165Z,31.33
2023-05-07T19:04:20.253Z,28.38
2023-05-07T19:06:47.658Z,29.10
2023-05-07T19:09:14.955Z,30.23
2023-05-07T19:11:42.441Z,27.02
2023-05-07T19:14:11.132Z,26.00
2023-05-07T19:16:38.731Z,22.40
2023-05-07T19:19:06.922Z,23.52
2023-05-07T19:21:34.252Z,23.42
2023-05-07T19:24:01.536Z,21.40
2023-05-07T19:26:28.933Z,20.27
2023-05-07T19:29:15.702Z,26.33
2023-05-07T19:31:44.585Z,20.90
2023-05-07T19:34:13.999Z,20.83
2023-05-07T19:36:41.650Z,23.95
2023-05-07T19:39:09.215Z,21.10
2023-05-07T19:41:37.080Z,17.77
2023-05-07T19:44:04.692Z,17.33
2023-05-07T19:46:32.066Z,18.73
2023-05-07T19:48:59.772Z,19.48
2023-05-07T19:51:29.072Z,17.85
2023-05-07T19:53:59.030Z,17.67
2023-05-07T19:56:26.468Z,23.75
2023-05-07T19:58:53.964Z,17.17
2023-05-07T20:01:21.858Z,19.13
2023-05-07T20:03:49.274Z,22.05
2023-05-07T20:06:16.924Z,16.05
2023-05-07T20:08:45.096Z,16.83
2023-05-07T20:11:13.433Z,19.42
2023-05-07T20:13:40.925Z,17.90
2023-05-07T20:16:08.453Z,16.50
2023-05-07T20:18:36.076Z,24.77
2023-05-07T20:21:04.872Z,18.45
2023-05-07T20:23:32.319Z,16.35
2023-05-07T20:25:59.668Z,18.80
2023-05-07T20:28:26.935Z,17.90
2023-05-07T20:30:54.763Z,17.25
2023-05-07T20:33:22.324Z,16.55
2023-05-07T20:35:49.880Z,18.63
2023-05-07T20:38:17.322Z,18.60
2023-05-07T20:40:44.755Z,17.27
2023-05-07T20:43:12.573Z,17.73
2023-05-07T20:45:40.003Z,17.67
2023-05-07T20:48:07.326Z,15.57
2023-05-07T20:50:34.767Z,15.73
2023-05-07T20:53:02.090Z,16.02
2023-05-07T20:55:29.390Z,15.60
2023-05-07T20:57:56.788Z,16.75
2023-05-07T21:00:24.056Z,15.15
2023-05-07T21:02:51.394Z,14.75
2023-05-07T21:05:18.827Z,14.32
2023-05-07T21:07:46.133Z,15.45
2023-05-07T21:10:13.644Z,17.17
2023-05-07T21:12:41.180Z,14.23
2023-05-07T21:15:09.304Z,15.02
2023-05-07T21:17:36.607Z,15.10
2023-05-07T21:20:04.132Z,14.30
2023-05-07T21:22:31.711Z,14.73
2023-05-07T21:24:59.604Z,17.10
2023-05-07T21:27:30.102Z,15.48
2023-05-07T21:30:03.285Z,15.00
2023-05-07T21:32:31.090Z,13.10
2023-05-07T21:35:00.706Z,15.05
2023-05-07T21:37:27.962Z,17.20
2023-05-07T21:39:55.312Z,13.82
2023-05-07T21:42:23.405Z,14.80
2023-05-07T21:44:51.073Z,13.68
2023-05-07T21:47:18.425Z,15.02
2023-05-07T21:49:46.160Z,14.73
2023-05-07T21:52:14.685Z,14.60
2023-05-07T21:54:42.077Z,14.65
2023-05-07T21:57:09.420Z,14.15
2023-05-07T21:59:37.426Z,15.77
2023-05-07T22:02:05.603Z,14.50
2023-05-07T22:04:32.942Z,13.18
2023-05-07T22:07:00.239Z,14.05
2023-05-07T22:09:27.541Z,15.00
2023-05-07T22:11:55.184Z,13.88
2023-05-07T22:14:22.741Z,14.27
2023-05-07T22:16:50.096Z,13.50
2023-05-07T22:19:17.450Z,14.20
2023-05-07T22:21:44.755Z,14.05
2023-05-07T22:24:12.544Z,14.20
2023-05-07T22:26:39.877Z,14.85
2023-05-07T22:29:07.188Z,15.07
2023-05-07T22:31:34.536Z,13.93
2023-05-07T22:34:02.322Z,14.30
2023-05-07T22:36:29.580Z,15.00
2023-05-07T22:38:56.868Z,14.43
2023-05-07T22:41:24.619Z,14.38
2023-05-07T22:43:51.953Z,14.85
2023-05-07T22:46:19.344Z,15.85
2023-05-07T22:48:46.663Z,14.00
2023-05-07T22:51:14.822Z,13.90
2023-05-07T22:53:42.255Z,14.45
2023-05-07T22:56:10.649Z,14.77
2023-05-07T22:58:38.041Z,14.73
2023-05-07T23:01:11.555Z,15.32
2023-05-07T23:03:38.996Z,14.97
2023-05-07T23:06:06.572Z,14.63
2023-05-07T23:08:33.977Z,15.07
2023-05-07T23:11:01.382Z,14.57
2023-05-07T23:13:28.778Z,14.38
2023-05-07T23:15:56.094Z,16.80
2023-05-07T23:18:23.367Z,15.18
2023-05-07T23:20:50.648Z,15.35
2023-05-07T23:23:18.002Z,16.02
2023-05-07T23:25:46.940Z,16.70
2023-05-07T23:28:14.500Z,14.95
2023-05-07T23:30:41.940Z,15.65
2023-05-07T23:33:09.344Z,16.45
2023-05-07T23:35:36.741Z,16.30
2023-05-07T23:38:04.072Z,16.80
2023-05-07T23:40:31.552Z,16.58
2023-05-07T23:42:58.834Z,17.20
2023-05-07T23:45:26.431Z,15.93
2023-05-07T23:47:53.810Z,17.00
2023-05-07T23:50:21.201Z,17.17
2023-05-07T23:52:48.429Z,17.08
2023-05-07T23:55:16.711Z,16.48
2023-05-07T23:57:44.042Z,17.70
